sensor_id;sensor_type;location;lat;lon;timestamp;P1;durP1;ratioP1;P2;durP2;ratioP2
1320;SDS011;653;51.480;11.992;2024-02-14T00:01:26;10.43;;;9.43;;
1320;SDS011;653;51.480;11.992;2024-02-14T00:03:52;13.10;;;11.00;;
1320;SDS011;653;51.480;11.992;2024-02-14T00:06:20;13.90;;;10.83;;
1320;SDS011;653;51.480;11.992;2024-02-14T00:08:46;12.23;;;9.93;;
1320;SDS011;653;51.480;11.992;2024-02-14T00:11:15;10.67;;;9.60;;
1320;SDS011;653;51.480;11.992;2024-02-14T00:13:45;10.77;;;9.40;;
1320;SDS011;653;51.480;11.992;2024-02-14T00:16:12;11.80;;;10.60;;
1320;SDS011;653;51.480;11.992;2024-02-14T00:18:38;11.17;;;9.50;;
1320;SDS011;653;51.480;11.992;2024-02-14T00:21:05;10.50;;;9.50;;
1320;SDS011;653;51.480;11.992;2024-02-14T00:23:32;12.23;;;9.03;;
1320;SDS011;653;51.480;11.992;2024-02-14T00:25:59;13.90;;;8.87;;
1320;SDS011;653;51.480;11.992;2024-02-14T00:28:26;11.40;;;9.40;;
1320;SDS011;653;51.480;11.992;2024-02-14T00:30:54;9.50;;;8.50;;
1320;SDS011;653;51.480;11.992;2024-02-14T00:33:21;11.70;;;8.93;;
1320;SDS011;653;51.480;11.992;2024-02-14T00:35:57;10.70;;;8.63;;
1320;SDS011;653;51.480;11.992;2024-02-14T00:38:24;10.53;;;8.70;;
1320;SDS011;653;51.480;11.992;2024-02-14T00:40:51;10.80;;;9.53;;
1320;SDS011;653;51.480;11.992;2024-02-14T00:43:22;11.23;;;10.03;;
1320;SDS011;653;51.480;11.992;2024-02-14T00:45:49;12.10;;;8.97;;
1320;SDS011;653;51.480;11.992;2024-02-14T00:48:19;11.10;;;10.00;;
1320;SDS011;653;51.480;11.992;2024-02-14T00:50:46;11.67;;;9.43;;
1320;SDS011;653;51.480;11.992;2024-02-14T00:56:02;14.30;;;10.90;;
1320;SDS011;653;51.480;11.992;2024-02-14T00:58:28;10.20;;;9.20;;
1320;SDS011;653;51.480;11.992;2024-02-14T01:00:55;10.80;;;9.70;;
1320;SDS011;653;51.480;11.992;2024-02-14T01:03:21;15.07;;;9.77;;
1320;SDS011;653;51.480;11.992;2024-02-14T01:05:50;12.60;;;8.93;;
1320;SDS011;653;51.480;11.992;2024-02-14T01:08:18;10.97;;;9.00;;
1320;SDS011;653;51.480;11.992;2024-02-14T01:10:45;12.17;;;9.20;;
1320;SDS011;653;51.480;11.992;2024-02-14T01:13:13;12.10;;;8.87;;
1320;SDS011;653;51.480;11.992;2024-02-14T01:15:40;8.67;;;7.60;;
1320;SDS011;653;51.480;11.992;2024-02-14T01:18:06;8.97;;;8.13;;
1320;SDS011;653;51.480;11.992;2024-02-14T01:20:33;9.00;;;7.83;;
1320;SDS011;653;51.480;11.992;2024-02-14T01:23:02;9.40;;;8.50;;
1320;SDS011;653;51.480;11.992;2024-02-14T01:25:28;8.10;;;7.30;;
1320;SDS011;653;51.480;11.992;2024-02-14T01:27:55;9.37;;;8.50;;
1320;SDS011;653;51.480;11.992;2024-02-14T01:30:23;9.40;;;7.73;;
1320;SDS011;653;51.480;11.992;2024-02-14T01:32:50;10.43;;;7.37;;
1320;SDS011;653;51.480;11.992;2024-02-14T01:35:18;7.97;;;7.17;;
1320;SDS011;653;51.480;11.992;2024-02-14T01:37:44;9.80;;;8.27;;
1320;SDS011;653;51.480;11.992;2024-02-14T01:40:12;10.43;;;8.80;;
1320;SDS011;653;51.480;11.992;2024-02-14T01:42:38;9.97;;;7.73;;
1320;SDS011;653;51.480;11.992;2024-02-14T01:45:05;9.33;;;8.40;;
1320;SDS011;653;51.480;11.992;2024-02-14T01:47:33;9.43;;;8.43;;
1320;SDS011;653;51.480;11.992;2024-02-14T01:49:59;9.20;;;8.40;;
1320;SDS011;653;51.480;11.992;2024-02-14T01:52:26;8.90;;;8.00;;
1320;SDS011;653;51.480;11.992;2024-02-14T01:54:54;9.87;;;8.97;;
1320;SDS011;653;51.480;11.992;2024-02-14T01:57:21;10.90;;;9.17;;
1320;SDS011;653;51.480;11.992;2024-02-14T01:59:55;9.57;;;7.37;;
1320;SDS011;653;51.480;11.992;2024-02-14T02:02:34;8.27;;;7.40;;
1320;SDS011;653;51.480;11.992;2024-02-14T02:05:02;8.40;;;7.57;;
1320;SDS011;653;51.480;11.992;2024-02-14T02:07:35;8.63;;;7.53;;
1320;SDS011;653;51.480;11.992;2024-02-14T02:10:04;9.13;;;7.40;;
1320;SDS011;653;51.480;11.992;2024-02-14T02:12:31;8.73;;;7.90;;
1320;SDS011;653;51.480;11.992;2024-02-14T02:14:57;9.03;;;6.93;;
1320;SDS011;653;51.480;11.992;2024-02-14T02:17:25;11.40;;;8.13;;
1320;SDS011;653;51.480;11.992;2024-02-14T02:19:54;7.73;;;6.97;;
1320;SDS011;653;51.480;11.992;2024-02-14T02:22:21;10.07;;;7.70;;
1320;SDS011;653;51.480;11.992;2024-02-14T02:24:48;8.80;;;7.17;;
1320;SDS011;653;51.480;11.992;2024-02-14T02:27:16;8.20;;;6.73;;
1320;SDS011;653;51.480;11.992;2024-02-14T02:29:42;7.93;;;7.17;;
1320;SDS011;653;51.480;11.992;2024-02-14T02:32:08;8.60;;;7.03;;
1320;SDS011;653;51.480;11.992;2024-02-14T02:34:35;7.73;;;6.50;;
1320;SDS011;653;51.480;11.992;2024-02-14T02:37:04;9.40;;;7.57;;
1320;SDS011;653;51.480;11.992;2024-02-14T02:39:32;12.63;;;8.30;;
1320;SDS011;653;51.480;11.992;2024-02-14T02:42:03;12.17;;;6.10;;
1320;SDS011;653;51.480;11.992;2024-02-14T02:44:30;8.10;;;7.10;;
1320;SDS011;653;51.480;11.992;2024-02-14T02:46:58;13.00;;;11.80;;
1320;SDS011;653;51.480;11.992;2024-02-14T02:49:28;15.20;;;13.63;;
1320;SDS011;653;51.480;11.992;2024-02-14T02:51:54;14.60;;;13.27;;
1320;SDS011;653;51.480;11.992;2024-02-14T02:54:23;22.30;;;19.97;;
1320;SDS011;653;51.480;11.992;2024-02-14T02:56:50;20.93;;;17.87;;
1320;SDS011;653;51.480;11.992;2024-02-14T02:59:17;17.90;;;16.00;;
1320;SDS011;653;51.480;11.992;2024-02-14T03:01:44;16.30;;;14.90;;
1320;SDS011;653;51.480;11.992;2024-02-14T03:04:10;12.13;;;11.03;;
1320;SDS011;653;51.480;11.992;2024-02-14T03:06:39;12.70;;;10.60;;
1320;SDS011;653;51.480;11.992;2024-02-14T03:09:08;11.80;;;8.90;;
1320;SDS011;653;51.480;11.992;2024-02-14T03:11:34;8.90;;;6.97;;
1320;SDS011;653;51.480;11.992;2024-02-14T03:14:11;6.50;;;5.90;;
1320;SDS011;653;51.480;11.992;2024-02-14T03:16:39;6.40;;;5.43;;
1320;SDS011;653;51.480;11.992;2024-02-14T03:19:05;5.30;;;4.80;;
1320;SDS011;653;51.480;11.992;2024-02-14T03:21:34;5.13;;;4.63;;
1320;SDS011;653;51.480;11.992;2024-02-14T03:24:02;8.27;;;5.40;;
1320;SDS011;653;51.480;11.992;2024-02-14T03:26:31;6.60;;;4.87;;
1320;SDS011;653;51.480;11.992;2024-02-14T03:28:58;6.03;;;4.90;;
1320;SDS011;653;51.480;11.992;2024-02-14T03:31:24;5.30;;;4.80;;
1320;SDS011;653;51.480;11.992;2024-02-14T03:33:52;4.93;;;4.53;;
1320;SDS011;653;51.480;11.992;2024-02-14T03:36:19;4.13;;;3.83;;
1320;SDS011;653;51.480;11.992;2024-02-14T03:38:45;5.33;;;4.67;;
1320;SDS011;653;51.480;11.992;2024-02-14T03:41:12;5.40;;;4.37;;
1320;SDS011;653;51.480;11.992;2024-02-14T03:43:39;4.93;;;4.30;;
1320;SDS011;653;51.480;11.992;2024-02-14T03:46:07;7.93;;;4.60;;
1320;SDS011;653;51.480;11.992;2024-02-14T03:48:36;6.57;;;5.83;;
1320;SDS011;653;51.480;11.992;2024-02-14T03:51:04;7.80;;;5.50;;
1320;SDS011;653;51.480;11.992;2024-02-14T03:53:33;5.00;;;4.60;;
1320;SDS011;653;51.480;11.992;2024-02-14T03:56:00;5.33;;;4.83;;
1320;SDS011;653;51.480;11.992;2024-02-14T03:58:26;6.43;;;5.90;;
1320;SDS011;653;51.480;11.992;2024-02-14T04:00:53;5.63;;;5.13;;
1320;SDS011;653;51.480;11.992;2024-02-14T04:03:19;7.00;;;4.70;;
1320;SDS011;653;51.480;11.992;2024-02-14T04:05:46;6.00;;;4.90;;
1320;SDS011;653;51.480;11.992;2024-02-14T04:08:15;5.90;;;4.90;;
1320;SDS011;653;51.480;11.992;2024-02-14T04:10:42;5.13;;;4.73;;
1320;SDS011;653;51.480;11.992;2024-02-14T04:13:09;4.60;;;4.30;;
1320;SDS011;653;51.480;11.992;2024-02-14T04:15:37;4.53;;;4.13;;
1320;SDS011;653;51.480;11.992;2024-02-14T04:18:04;5.00;;;4.13;;
1320;SDS011;653;51.480;11.992;2024-02-14T04:20:31;4.27;;;3.90;;
1320;SDS011;653;51.480;11.992;2024-02-14T04:22:57;5.40;;;4.80;;
1320;SDS011;653;51.480;11.992;2024-02-14T04:25:26;7.60;;;4.07;;
1320;SDS011;653;51.480;11.992;2024-02-14T04:27:54;4.47;;;4.07;;
1320;SDS011;653;51.480;11.992;2024-02-14T04:30:23;8.57;;;4.57;;
1320;SDS011;653;51.480;11.992;2024-02-14T04:32:49;6.20;;;3.80;;
1320;SDS011;653;51.480;11.992;2024-02-14T04:35:17;4.70;;;4.10;;
1320;SDS011;653;51.480;11.992;2024-02-14T04:37:43;5.10;;;3.73;;
1320;SDS011;653;51.480;11.992;2024-02-14T04:40:11;4.40;;;3.67;;
1320;SDS011;653;51.480;11.992;2024-02-14T04:42:42;4.97;;;4.20;;
1320;SDS011;653;51.480;11.992;2024-02-14T04:45:09;5.40;;;4.50;;
1320;SDS011;653;51.480;11.992;2024-02-14T04:47:37;3.77;;;3.43;;
1320;SDS011;653;51.480;11.992;2024-02-14T04:50:03;6.93;;;4.60;;
1320;SDS011;653;51.480;11.992;2024-02-14T04:52:33;4.67;;;4.27;;
1320;SDS011;653;51.480;11.992;2024-02-14T04:55:01;5.50;;;3.90;;
1320;SDS011;653;51.480;11.992;2024-02-14T04:57:30;4.97;;;4.47;;
1320;SDS011;653;51.480;11.992;2024-02-14T05:00:05;5.90;;;4.47;;
1320;SDS011;653;51.480;11.992;2024-02-14T05:02:36;6.63;;;4.57;;
1320;SDS011;653;51.480;11.992;2024-02-14T05:05:05;4.73;;;4.33;;
1320;SDS011;653;51.480;11.992;2024-02-14T05:07:35;4.77;;;4.37;;
1320;SDS011;653;51.480;11.992;2024-02-14T05:10:03;4.53;;;4.13;;
1320;SDS011;653;51.480;11.992;2024-02-14T05:12:35;5.30;;;4.70;;
1320;SDS011;653;51.480;11.992;2024-02-14T05:15:08;4.80;;;4.40;;
1320;SDS011;653;51.480;11.992;2024-02-14T05:17:37;4.27;;;3.97;;
1320;SDS011;653;51.480;11.992;2024-02-14T05:20:07;4.80;;;4.27;;
1320;SDS011;653;51.480;11.992;2024-02-14T05:22:35;6.43;;;4.57;;
1320;SDS011;653;51.480;11.992;2024-02-14T05:25:01;4.63;;;3.77;;
1320;SDS011;653;51.480;11.992;2024-02-14T05:27:29;5.03;;;4.53;;
1320;SDS011;653;51.480;11.992;2024-02-14T05:29:55;4.67;;;4.10;;
1320;SDS011;653;51.480;11.992;2024-02-14T05:32:23;9.40;;;3.67;;
1320;SDS011;653;51.480;11.992;2024-02-14T05:34:52;4.83;;;4.43;;
1320;SDS011;653;51.480;11.992;2024-02-14T05:37:24;5.23;;;3.97;;
1320;SDS011;653;51.480;11.992;2024-02-14T05:39:57;5.13;;;4.37;;
1320;SDS011;653;51.480;11.992;2024-02-14T05:42:28;4.17;;;3.63;;
1320;SDS011;653;51.480;11.992;2024-02-14T05:44:57;4.53;;;3.63;;
1320;SDS011;653;51.480;11.992;2024-02-14T05:47:28;6.00;;;3.97;;
1320;SDS011;653;51.480;11.992;2024-02-14T05:50:00;3.80;;;3.57;;
1320;SDS011;653;51.480;11.992;2024-02-14T05:52:27;4.00;;;3.67;;
1320;SDS011;653;51.480;11.992;2024-02-14T05:54:55;5.97;;;3.97;;
1320;SDS011;653;51.480;11.992;2024-02-14T05:57:49;5.70;;;4.10;;
1320;SDS011;653;51.480;11.992;2024-02-14T06:00:20;4.20;;;3.53;;
1320;SDS011;653;51.480;11.992;2024-02-14T06:02:49;4.10;;;3.70;;
1320;SDS011;653;51.480;11.992;2024-02-14T06:05:21;4.77;;;3.67;;
1320;SDS011;653;51.480;11.992;2024-02-14T06:07:54;4.10;;;3.80;;
1320;SDS011;653;51.480;11.992;2024-02-14T06:10:21;4.53;;;3.73;;
1320;SDS011;653;51.480;11.992;2024-02-14T06:12:55;4.07;;;3.37;;
1320;SDS011;653;51.480;11.992;2024-02-14T06:15:21;5.60;;;3.97;;
1320;SDS011;653;51.480;11.992;2024-02-14T06:17:51;4.60;;;4.20;;
1320;SDS011;653;51.480;11.992;2024-02-14T06:20:20;3.80;;;3.50;;
1320;SDS011;653;51.480;11.992;2024-02-14T06:22:53;4.07;;;3.77;;
1320;SDS011;653;51.480;11.992;2024-02-14T06:25:37;5.07;;;4.17;;
1320;SDS011;653;51.480;11.992;2024-02-14T06:28:20;4.57;;;3.70;;
1320;SDS011;653;51.480;11.992;2024-02-14T06:30:51;5.00;;;4.03;;
1320;SDS011;653;51.480;11.992;2024-02-14T06:36:08;4.70;;;4.10;;
1320;SDS011;653;51.480;11.992;2024-02-14T06:38:50;3.80;;;3.60;;
1320;SDS011;653;51.480;11.992;2024-02-14T06:41:23;6.20;;;4.50;;
1320;SDS011;653;51.480;11.992;2024-02-14T06:44:05;4.77;;;4.47;;
1320;SDS011;653;51.480;11.992;2024-02-14T06:46:32;5.40;;;3.90;;
1320;SDS011;653;51.480;11.992;2024-02-14T06:49:01;4.67;;;4.33;;
1320;SDS011;653;51.480;11.992;2024-02-14T06:51:35;4.97;;;4.47;;
1320;SDS011;653;51.480;11.992;2024-02-14T06:54:02;5.87;;;4.00;;
1320;SDS011;653;51.480;11.992;2024-02-14T06:56:30;6.03;;;5.10;;
1320;SDS011;653;51.480;11.992;2024-02-14T06:59:03;5.30;;;4.90;;
1320;SDS011;653;51.480;11.992;2024-02-14T07:01:31;7.30;;;4.73;;
1320;SDS011;653;51.480;11.992;2024-02-14T07:03:59;5.17;;;4.67;;
1320;SDS011;653;51.480;11.992;2024-02-14T07:06:27;5.10;;;4.67;;
1320;SDS011;653;51.480;11.992;2024-02-14T07:11:45;5.37;;;4.97;;
1320;SDS011;653;51.480;11.992;2024-02-14T07:14:14;5.70;;;5.20;;
1320;SDS011;653;51.480;11.992;2024-02-14T07:16:41;6.50;;;5.90;;
1320;SDS011;653;51.480;11.992;2024-02-14T07:19:08;7.00;;;4.93;;
1320;SDS011;653;51.480;11.992;2024-02-14T07:21:40;4.73;;;4.43;;
1320;SDS011;653;51.480;11.992;2024-02-14T07:24:08;5.50;;;4.70;;
1320;SDS011;653;51.480;11.992;2024-02-14T07:26:35;5.43;;;4.73;;
1320;SDS011;653;51.480;11.992;2024-02-14T07:29:19;4.47;;;3.80;;
1320;SDS011;653;51.480;11.992;2024-02-14T07:31:50;4.30;;;4.00;;
1320;SDS011;653;51.480;11.992;2024-02-14T07:34:18;5.20;;;4.70;;
1320;SDS011;653;51.480;11.992;2024-02-14T07:36:45;5.27;;;4.87;;
1320;SDS011;653;51.480;11.992;2024-02-14T07:39:13;5.27;;;4.87;;
1320;SDS011;653;51.480;11.992;2024-02-14T07:41:39;5.43;;;4.93;;
1320;SDS011;653;51.480;11.992;2024-02-14T07:44:07;5.10;;;4.70;;
1320;SDS011;653;51.480;11.992;2024-02-14T07:46:36;7.93;;;5.17;;
1320;SDS011;653;51.480;11.992;2024-02-14T07:49:06;5.07;;;4.67;;
1320;SDS011;653;51.480;11.992;2024-02-14T07:51:37;5.10;;;4.63;;
1320;SDS011;653;51.480;11.992;2024-02-14T07:54:05;4.80;;;4.30;;
1320;SDS011;653;51.480;11.992;2024-02-14T07:56:33;4.77;;;4.47;;
1320;SDS011;653;51.480;11.992;2024-02-14T07:59:02;4.50;;;4.10;;
1320;SDS011;653;51.480;11.992;2024-02-14T08:01:32;4.73;;;4.43;;
1320;SDS011;653;51.480;11.992;2024-02-14T08:04:01;5.03;;;4.73;;
1320;SDS011;653;51.480;11.992;2024-02-14T08:06:29;4.33;;;4.00;;
1320;SDS011;653;51.480;11.992;2024-02-14T08:08:57;5.07;;;4.77;;
1320;SDS011;653;51.480;11.992;2024-02-14T08:11:33;4.80;;;4.50;;
1320;SDS011;653;51.480;11.992;2024-02-14T08:14:02;10.20;;;4.67;;
1320;SDS011;653;51.480;11.992;2024-02-14T08:16:31;6.83;;;4.07;;
1320;SDS011;653;51.480;11.992;2024-02-14T08:18:59;6.30;;;3.70;;
1320;SDS011;653;51.480;11.992;2024-02-14T08:21:40;4.20;;;4.00;;
1320;SDS011;653;51.480;11.992;2024-02-14T08:24:12;4.50;;;4.13;;
1320;SDS011;653;51.480;11.992;2024-02-14T08:26:40;5.60;;;5.10;;
1320;SDS011;653;51.480;11.992;2024-02-14T08:29:07;4.73;;;4.33;;
1320;SDS011;653;51.480;11.992;2024-02-14T08:31:39;5.70;;;5.27;;
1320;SDS011;653;51.480;11.992;2024-02-14T08:34:07;5.60;;;5.10;;
1320;SDS011;653;51.480;11.992;2024-02-14T08:36:55;5.17;;;4.87;;
1320;SDS011;653;51.480;11.992;2024-02-14T08:39:24;4.93;;;4.60;;
1320;SDS011;653;51.480;11.992;2024-02-14T08:41:52;4.73;;;4.33;;
1320;SDS011;653;51.480;11.992;2024-02-14T08:44:22;5.83;;;4.90;;
1320;SDS011;653;51.480;11.992;2024-02-14T08:46:51;4.43;;;3.70;;
1320;SDS011;653;51.480;11.992;2024-02-14T08:49:19;8.43;;;4.90;;
1320;SDS011;653;51.480;11.992;2024-02-14T08:51:52;11.93;;;5.73;;
1320;SDS011;653;51.480;11.992;2024-02-14T08:54:20;4.87;;;4.47;;
1320;SDS011;653;51.480;11.992;2024-02-14T08:56:49;7.10;;;5.10;;
1320;SDS011;653;51.480;11.992;2024-02-14T08:59:19;5.20;;;4.77;;
1320;SDS011;653;51.480;11.992;2024-02-14T09:01:48;5.97;;;5.50;;
1320;SDS011;653;51.480;11.992;2024-02-14T09:04:17;5.10;;;4.40;;
1320;SDS011;653;51.480;11.992;2024-02-14T09:07:00;5.67;;;5.23;;
1320;SDS011;653;51.480;11.992;2024-02-14T09:09:30;5.33;;;4.90;;
1320;SDS011;653;51.480;11.992;2024-02-14T09:11:57;6.70;;;5.10;;
1320;SDS011;653;51.480;11.992;2024-02-14T09:14:27;4.60;;;4.30;;
1320;SDS011;653;51.480;11.992;2024-02-14T09:16:57;4.93;;;4.53;;
1320;SDS011;653;51.480;11.992;2024-02-14T09:19:30;6.37;;;4.80;;
1320;SDS011;653;51.480;11.992;2024-02-14T09:22:01;5.40;;;4.53;;
1320;SDS011;653;51.480;11.992;2024-02-14T09:24:32;6.00;;;5.10;;
1320;SDS011;653;51.480;11.992;2024-02-14T09:27:00;5.40;;;5.00;;
1320;SDS011;653;51.480;11.992;2024-02-14T09:29:41;4.90;;;4.57;;
1320;SDS011;653;51.480;11.992;2024-02-14T09:32:08;7.60;;;5.10;;
1320;SDS011;653;51.480;11.992;2024-02-14T09:34:35;8.37;;;6.00;;
1320;SDS011;653;51.480;11.992;2024-02-14T09:37:05;4.90;;;4.60;;
1320;SDS011;653;51.480;11.992;2024-02-14T09:39:33;5.20;;;4.90;;
1320;SDS011;653;51.480;11.992;2024-02-14T09:42:03;6.33;;;5.10;;
1320;SDS011;653;51.480;11.992;2024-02-14T09:44:35;4.40;;;4.10;;
1320;SDS011;653;51.480;11.992;2024-02-14T09:47:06;5.50;;;5.10;;
1320;SDS011;653;51.480;11.992;2024-02-14T09:49:35;5.47;;;5.07;;
1320;SDS011;653;51.480;11.992;2024-02-14T09:54:49;5.17;;;4.77;;
1320;SDS011;653;51.480;11.992;2024-02-14T09:57:18;6.27;;;4.73;;
1320;SDS011;653;51.480;11.992;2024-02-14T09:59:59;5.30;;;4.80;;
1320;SDS011;653;51.480;11.992;2024-02-14T10:02:27;5.40;;;5.00;;
1320;SDS011;653;51.480;11.992;2024-02-14T10:04:57;5.93;;;5.37;;
1320;SDS011;653;51.480;11.992;2024-02-14T10:07:25;5.47;;;5.07;;
1320;SDS011;653;51.480;11.992;2024-02-14T10:10:05;5.33;;;4.90;;
1320;SDS011;653;51.480;11.992;2024-02-14T10:12:33;6.07;;;5.47;;
1320;SDS011;653;51.480;11.992;2024-02-14T10:15:05;5.53;;;5.10;;
1320;SDS011;653;51.480;11.992;2024-02-14T10:17:52;6.43;;;5.80;;
1320;SDS011;653;51.480;11.992;2024-02-14T10:20:25;11.03;;;5.37;;
1320;SDS011;653;51.480;11.992;2024-02-14T10:23:00;6.87;;;5.63;;
1320;SDS011;653;51.480;11.992;2024-02-14T10:25:30;5.27;;;4.77;;
1320;SDS011;653;51.480;11.992;2024-02-14T10:28:06;6.40;;;4.87;;
1320;SDS011;653;51.480;11.992;2024-02-14T10:30:51;13.97;;;6.50;;
1320;SDS011;653;51.480;11.992;2024-02-14T10:33:30;5.27;;;4.87;;
1320;SDS011;653;51.480;11.992;2024-02-14T10:35:58;5.60;;;5.20;;
1320;SDS011;653;51.480;11.992;2024-02-14T10:38:27;5.57;;;5.00;;
1320;SDS011;653;51.480;11.992;2024-02-14T10:41:06;5.97;;;5.57;;
1320;SDS011;653;51.480;11.992;2024-02-14T10:43:34;5.20;;;4.83;;
1320;SDS011;653;51.480;11.992;2024-02-14T10:46:05;4.30;;;4.00;;
1320;SDS011;653;51.480;11.992;2024-02-14T10:48:37;6.40;;;5.80;;
1320;SDS011;653;51.480;11.992;2024-02-14T10:51:05;7.90;;;6.60;;
1320;SDS011;653;51.480;11.992;2024-02-14T10:53:32;5.70;;;5.30;;
1320;SDS011;653;51.480;11.992;2024-02-14T10:56:16;5.50;;;5.00;;
1320;SDS011;653;51.480;11.992;2024-02-14T10:58:47;5.73;;;5.33;;
1320;SDS011;653;51.480;11.992;2024-02-14T11:01:15;4.20;;;3.90;;
1320;SDS011;653;51.480;11.992;2024-02-14T11:03:47;5.80;;;5.07;;
1320;SDS011;653;51.480;11.992;2024-02-14T11:06:16;4.60;;;4.27;;
1320;SDS011;653;51.480;11.992;2024-02-14T11:08:55;5.70;;;4.50;;
1320;SDS011;653;51.480;11.992;2024-02-14T11:11:34;4.70;;;4.30;;
1320;SDS011;653;51.480;11.992;2024-02-14T11:14:03;5.27;;;4.77;;
1320;SDS011;653;51.480;11.992;2024-02-14T11:16:32;5.30;;;4.90;;
1320;SDS011;653;51.480;11.992;2024-02-14T11:19:07;4.73;;;4.33;;
1320;SDS011;653;51.480;11.992;2024-02-14T11:21:45;5.07;;;4.67;;
1320;SDS011;653;51.480;11.992;2024-02-14T11:24:15;4.83;;;4.50;;
1320;SDS011;653;51.480;11.992;2024-02-14T11:26:56;6.70;;;4.10;;
1320;SDS011;653;51.480;11.992;2024-02-14T11:29:28;4.80;;;4.40;;
1320;SDS011;653;51.480;11.992;2024-02-14T11:32:00;4.80;;;4.50;;
1320;SDS011;653;51.480;11.992;2024-02-14T11:34:33;4.97;;;4.50;;
1320;SDS011;653;51.480;11.992;2024-02-14T11:37:01;4.83;;;4.33;;
1320;SDS011;653;51.480;11.992;2024-02-14T11:39:32;4.83;;;4.43;;
1320;SDS011;653;51.480;11.992;2024-02-14T11:42:15;5.57;;;5.00;;
1320;SDS011;653;51.480;11.992;2024-02-14T11:44:42;4.50;;;4.13;;
1320;SDS011;653;51.480;11.992;2024-02-14T11:47:13;4.70;;;4.30;;
1320;SDS011;653;51.480;11.992;2024-02-14T11:50:11;4.17;;;3.77;;
1320;SDS011;653;51.480;11.992;2024-02-14T11:52:44;4.60;;;4.00;;
1320;SDS011;653;51.480;11.992;2024-02-14T11:55:17;4.47;;;4.17;;
1320;SDS011;653;51.480;11.992;2024-02-14T11:57:47;4.90;;;4.50;;
1320;SDS011;653;51.480;11.992;2024-02-14T12:00:19;4.50;;;4.10;;
1320;SDS011;653;51.480;11.992;2024-02-14T12:02:47;4.93;;;4.20;;
1320;SDS011;653;51.480;11.992;2024-02-14T12:05:17;4.90;;;4.50;;
1320;SDS011;653;51.480;11.992;2024-02-14T12:07:45;4.40;;;4.10;;
1320;SDS011;653;51.480;11.992;2024-02-14T12:10:13;5.37;;;4.30;;
1320;SDS011;653;51.480;11.992;2024-02-14T12:12:47;4.60;;;4.30;;
1320;SDS011;653;51.480;11.992;2024-02-14T12:15:18;4.47;;;4.07;;
1320;SDS011;653;51.480;11.992;2024-02-14T12:17:47;4.37;;;4.07;;
1320;SDS011;653;51.480;11.992;2024-02-14T12:20:21;4.27;;;3.97;;
1320;SDS011;653;51.480;11.992;2024-02-14T12:22:53;6.70;;;6.10;;
1320;SDS011;653;51.480;11.992;2024-02-14T12:25:23;4.80;;;4.40;;
1320;SDS011;653;51.480;11.992;2024-02-14T12:28:06;5.43;;;4.70;;
1320;SDS011;653;51.480;11.992;2024-02-14T12:30:46;4.33;;;3.93;;
1320;SDS011;653;51.480;11.992;2024-02-14T12:33:35;5.17;;;4.10;;
1320;SDS011;653;51.480;11.992;2024-02-14T12:36:03;5.07;;;4.50;;
1320;SDS011;653;51.480;11.992;2024-02-14T12:38:32;4.37;;;3.83;;
1320;SDS011;653;51.480;11.992;2024-02-14T12:41:01;4.40;;;4.10;;
1320;SDS011;653;51.480;11.992;2024-02-14T12:43:30;4.40;;;4.00;;
1320;SDS011;653;51.480;11.992;2024-02-14T12:45:59;4.60;;;4.30;;
1320;SDS011;653;51.480;11.992;2024-02-14T12:48:27;4.47;;;4.07;;
1320;SDS011;653;51.480;11.992;2024-02-14T12:50:56;4.00;;;3.80;;
1320;SDS011;653;51.480;11.992;2024-02-14T12:53:24;4.70;;;4.30;;
1320;SDS011;653;51.480;11.992;2024-02-14T12:55:52;3.97;;;3.67;;
1320;SDS011;653;51.480;11.992;2024-02-14T12:58:20;4.27;;;3.87;;
1320;SDS011;653;51.480;11.992;2024-02-14T13:01:04;3.70;;;3.40;;
1320;SDS011;653;51.480;11.992;2024-02-14T13:03:36;5.27;;;4.37;;
1320;SDS011;653;51.480;11.992;2024-02-14T13:06:04;4.47;;;4.17;;
1320;SDS011;653;51.480;11.992;2024-02-14T13:08:32;4.27;;;3.87;;
1320;SDS011;653;51.480;11.992;2024-02-14T13:11:00;4.60;;;4.30;;
1320;SDS011;653;51.480;11.992;2024-02-14T13:13:29;5.70;;;5.30;;
1320;SDS011;653;51.480;11.992;2024-02-14T13:15:58;5.03;;;4.53;;
1320;SDS011;653;51.480;11.992;2024-02-14T13:18:32;4.97;;;4.53;;
1320;SDS011;653;51.480;11.992;2024-02-14T13:21:01;5.60;;;4.50;;
1320;SDS011;653;51.480;11.992;2024-02-14T13:23:27;4.77;;;4.27;;
1320;SDS011;653;51.480;11.992;2024-02-14T13:26:19;4.33;;;4.03;;
1320;SDS011;653;51.480;11.992;2024-02-14T13:28:47;4.40;;;4.10;;
1320;SDS011;653;51.480;11.992;2024-02-14T13:31:15;4.60;;;4.30;;
1320;SDS011;653;51.480;11.992;2024-02-14T13:42:26;5.80;;;5.33;;
1320;SDS011;653;51.480;11.992;2024-02-14T13:45:04;5.50;;;5.00;;
1320;SDS011;653;51.480;11.992;2024-02-14T13:47:30;5.40;;;4.90;;
1320;SDS011;653;51.480;11.992;2024-02-14T13:49:59;5.50;;;5.00;;
1320;SDS011;653;51.480;11.992;2024-02-14T13:52:30;4.50;;;4.20;;
1320;SDS011;653;51.480;11.992;2024-02-14T13:55:00;6.10;;;5.20;;
1320;SDS011;653;51.480;11.992;2024-02-14T14:00:35;7.07;;;5.53;;
1320;SDS011;653;51.480;11.992;2024-02-14T14:03:04;5.17;;;4.77;;
1320;SDS011;653;51.480;11.992;2024-02-14T14:05:36;5.43;;;5.03;;
1320;SDS011;653;51.480;11.992;2024-02-14T14:08:09;5.20;;;4.70;;
1320;SDS011;653;51.480;11.992;2024-02-14T14:10:46;5.13;;;4.83;;
1320;SDS011;653;51.480;11.992;2024-02-14T14:13:31;5.73;;;5.23;;
1320;SDS011;653;51.480;11.992;2024-02-14T14:16:08;7.10;;;5.60;;
1320;SDS011;653;51.480;11.992;2024-02-14T14:18:55;5.37;;;5.03;;
1320;SDS011;653;51.480;11.992;2024-02-14T14:21:23;6.57;;;6.00;;
1320;SDS011;653;51.480;11.992;2024-02-14T14:24:05;6.00;;;5.50;;
1320;SDS011;653;51.480;11.992;2024-02-14T14:26:47;6.07;;;5.57;;
1320;SDS011;653;51.480;11.992;2024-02-14T14:29:17;5.43;;;5.10;;
1320;SDS011;653;51.480;11.992;2024-02-14T14:31:51;5.77;;;5.27;;
1320;SDS011;653;51.480;11.992;2024-02-14T14:34:19;6.10;;;5.60;;
1320;SDS011;653;51.480;11.992;2024-02-14T14:36:50;5.40;;;5.00;;
1320;SDS011;653;51.480;11.992;2024-02-14T14:39:20;5.37;;;4.87;;
1320;SDS011;653;51.480;11.992;2024-02-14T14:41:50;5.80;;;5.40;;
1320;SDS011;653;51.480;11.992;2024-02-14T14:44:20;5.83;;;5.37;;
1320;SDS011;653;51.480;11.992;2024-02-14T14:46:48;5.77;;;5.37;;
1320;SDS011;653;51.480;11.992;2024-02-14T14:52:12;5.97;;;5.37;;
1320;SDS011;653;51.480;11.992;2024-02-14T14:54:43;6.07;;;5.57;;
1320;SDS011;653;51.480;11.992;2024-02-14T14:57:12;5.70;;;5.30;;
1320;SDS011;653;51.480;11.992;2024-02-14T14:59:41;6.17;;;5.67;;
1320;SDS011;653;51.480;11.992;2024-02-14T15:02:12;8.27;;;5.20;;
1320;SDS011;653;51.480;11.992;2024-02-14T15:04:40;6.07;;;5.57;;
1320;SDS011;653;51.480;11.992;2024-02-14T15:07:12;5.70;;;5.20;;
1320;SDS011;653;51.480;11.992;2024-02-14T15:09:41;5.77;;;5.27;;
1320;SDS011;653;51.480;11.992;2024-02-14T15:12:12;5.80;;;5.30;;
1320;SDS011;653;51.480;11.992;2024-02-14T15:14:41;5.87;;;5.37;;
1320;SDS011;653;51.480;11.992;2024-02-14T15:17:09;5.60;;;5.10;;
1320;SDS011;653;51.480;11.992;2024-02-14T15:19:35;5.53;;;5.03;;
1320;SDS011;653;51.480;11.992;2024-02-14T15:22:04;4.70;;;4.40;;
1320;SDS011;653;51.480;11.992;2024-02-14T15:24:33;5.47;;;5.07;;
1320;SDS011;653;51.480;11.992;2024-02-14T15:27:09;5.13;;;4.63;;
1320;SDS011;653;51.480;11.992;2024-02-14T15:29:48;5.33;;;4.93;;
1320;SDS011;653;51.480;11.992;2024-02-14T15:32:33;5.23;;;4.83;;
1320;SDS011;653;51.480;11.992;2024-02-14T15:35:18;7.50;;;4.93;;
1320;SDS011;653;51.480;11.992;2024-02-14T15:37:49;5.00;;;4.57;;
1320;SDS011;653;51.480;11.992;2024-02-14T15:40:22;5.00;;;4.60;;
1320;SDS011;653;51.480;11.992;2024-02-14T15:42:50;5.33;;;5.03;;
1320;SDS011;653;51.480;11.992;2024-02-14T15:45:33;6.20;;;5.63;;
1320;SDS011;653;51.480;11.992;2024-02-14T15:48:04;6.10;;;4.80;;
1320;SDS011;653;51.480;11.992;2024-02-14T15:50:33;5.30;;;4.70;;
1320;SDS011;653;51.480;11.992;2024-02-14T15:53:03;5.47;;;5.07;;
1320;SDS011;653;51.480;11.992;2024-02-14T15:55:36;5.10;;;4.80;;
1320;SDS011;653;51.480;11.992;2024-02-14T15:58:02;5.43;;;4.93;;